Terminal Aerodrome Forecast
Issued by NWS

Home | Current Version | Previous Version | Text Only | Print | Product List | Glossary On
Versions: 1 2 3 4 5 6 7 8 9 10 11 12 13 14 15 16 17 18 19 20 21 22 23 24 25 26 27 28 29 30 31 32 33 34 35 36 37 38 39
000
FTAK31 PANC 201855 AAA
TAFAGK
TAF AMD
PAGK 201855Z 2019/2118 00000KT P6SM VCFG FEW004 BKN015
      TEMPO 2019/2021 3SM BR BKN004
     FM210000 35003KT P6SM SCT015 BKN120
     FM211200 VRB03KT P6SM VCSH SCT015 BKN035=

USA.gov is the U.S. government's official web portal to all federal, state and local government web resources and services.